createdAt,value
2019-02-03T00:03:13.190Z,61.48
2019-02-03T00:05:40.607Z,63.17
2019-02-03T00:08:08.045Z,63.90
2019-02-03T00:10:35.890Z,64.35
2019-02-03T00:13:03.454Z,63.13
2019-02-03T00:18:13.183Z,61.68
2019-02-03T00:20:41.395Z,62.43
2019-02-03T00:23:08.802Z,62.73
2019-02-03T00:25:37.027Z,58.58
2019-02-03T00:28:04.510Z,67.08
2019-02-03T00:30:31.937Z,64.85
2019-02-03T00:33:00.144Z,64.00
2019-02-03T00:35:27.886Z,66.22
2019-02-03T00:37:55.467Z,65.35
2019-02-03T00:40:23.021Z,64.32
2019-02-03T00:42:50.419Z,61.75
2019-02-03T00:45:17.928Z,61.30
2019-02-03T00:47:45.669Z,67.50
2019-02-03T00:50:14.395Z,53.90
2019-02-03T00:52:41.897Z,64.80
2019-02-03T00:55:11.023Z,63.73
2019-02-03T00:57:38.435Z,64.17
2019-02-03T01:00:07.686Z,63.35
2019-02-03T01:02:35.175Z,62.67
2019-02-03T01:05:02.696Z,60.50
2019-02-03T01:07:30.212Z,68.10
2019-02-03T01:09:57.965Z,64.80
2019-02-03T01:12:25.492Z,65.90
2019-02-03T01:14:52.907Z,62.48
2019-02-03T01:17:20.549Z,59.70
2019-02-03T01:19:48.022Z,64.10
2019-02-03T01:22:15.569Z,61.25
2019-02-03T01:24:42.999Z,63.90
2019-02-03T01:27:10.572Z,64.27
2019-02-03T01:29:38.167Z,66.80
2019-02-03T01:32:05.649Z,64.92
2019-02-03T01:34:33.191Z,65.70
2019-02-03T01:37:00.634Z,65.25
2019-02-03T01:39:28.259Z,61.90
2019-02-03T01:41:55.698Z,61.50
2019-02-03T01:44:23.362Z,63.85
2019-02-03T01:46:53.170Z,67.37
2019-02-03T01:49:20.707Z,59.70
2019-02-03T01:51:48.256Z,70.50
2019-02-03T01:54:15.774Z,66.22
2019-02-03T01:56:43.195Z,68.30
2019-02-03T01:59:10.780Z,64.85
2019-02-03T02:01:38.395Z,63.87
2019-02-03T02:04:06.099Z,61.30
2019-02-03T02:06:33.659Z,64.42
2019-02-03T02:09:01.209Z,69.50
2019-02-03T02:11:28.643Z,64.72
2019-02-03T02:13:56.059Z,70.65
2019-02-03T02:16:23.687Z,65.85
2019-02-03T02:18:51.318Z,68.12
2019-02-03T02:21:18.863Z,65.52
2019-02-03T02:23:46.300Z,66.07
2019-02-03T02:26:13.881Z,61.98
2019-02-03T02:28:41.442Z,67.92
2019-02-03T02:31:09.053Z,63.38
2019-02-03T02:33:36.498Z,64.10
2019-02-03T02:36:04.699Z,69.07
2019-02-03T02:38:32.165Z,63.10
2019-02-03T02:40:59.582Z,66.67
2019-02-03T02:43:27.129Z,68.65
2019-02-03T02:45:54.646Z,65.65
2019-02-03T02:48:22.245Z,58.78
2019-02-03T02:50:49.745Z,61.08
2019-02-03T02:53:17.170Z,64.50
2019-02-03T02:55:44.698Z,58.20
2019-02-03T02:58:12.284Z,62.93
2019-02-03T03:00:39.744Z,60.83
2019-02-03T03:03:07.320Z,63.75
2019-02-03T03:05:34.775Z,64.45
2019-02-03T03:08:03.177Z,63.15
2019-02-03T03:10:30.741Z,60.52
2019-02-03T03:12:58.228Z,63.75
2019-02-03T03:15:25.861Z,65.05
2019-02-03T03:17:53.595Z,63.78
2019-02-03T03:20:21.571Z,66.40
2019-02-03T03:22:49.577Z,63.17
2019-02-03T03:25:20.909Z,66.70
2019-02-03T03:27:48.403Z,64.12
2019-02-03T03:30:17.384Z,67.92
2019-02-03T03:32:45.094Z,62.85
2019-02-03T03:35:12.612Z,68.45
2019-02-03T03:37:43.656Z,66.10
2019-02-03T03:40:12.647Z,64.05
2019-02-03T03:42:40.112Z,58.08
2019-02-03T03:45:09.050Z,61.53
2019-02-03T03:47:36.706Z,64.45
2019-02-03T03:50:05.824Z,65.03
2019-02-03T03:52:33.623Z,61.13
2019-02-03T03:55:01.130Z,57.90
2019-02-03T03:57:28.587Z,62.38
2019-02-03T03:59:56.590Z,60.23
2019-02-03T04:02:24.092Z,53.45
2019-02-03T04:04:51.571Z,60.75
2019-02-03T04:07:19.191Z,61.10
2019-02-03T04:09:49.505Z,62.48
2019-02-03T04:12:16.939Z,60.95
2019-02-03T04:14:44.392Z,59.50
2019-02-03T04:17:11.810Z,58.38
2019-02-03T04:19:39.236Z,59.15
2019-02-03T04:22:06.683Z,62.85
2019-02-03T04:24:34.211Z,59.98
2019-02-03T04:27:01.651Z,59.67
2019-02-03T04:29:29.079Z,57.25
2019-02-03T04:31:56.537Z,59.63
2019-02-03T04:34:23.962Z,61.02
2019-02-03T04:36:51.559Z,58.73
2019-02-03T04:39:19.387Z,60.35
2019-02-03T04:41:46.803Z,60.03
2019-02-03T04:44:14.438Z,58.40
2019-02-03T04:46:41.866Z,62.23
2019-02-03T04:49:09.315Z,61.30
2019-02-03T04:51:36.817Z,58.28
2019-02-03T04:54:04.606Z,60.08
2019-02-03T04:56:32.073Z,58.50
2019-02-03T04:58:59.503Z,64.42
2019-02-03T05:01:26.928Z,59.70
2019-02-03T05:03:54.414Z,61.75
2019-02-03T05:06:21.900Z,57.45
2019-02-03T05:08:49.464Z,61.15
2019-02-03T05:11:17.222Z,57.80
2019-02-03T05:13:44.595Z,58.73
2019-02-03T05:16:12.025Z,57.45
2019-02-03T05:18:39.488Z,51.35
2019-02-03T05:21:07.050Z,58.08
2019-02-03T05:23:34.517Z,54.67
2019-02-03T05:26:02.029Z,55.05
2019-02-03T05:28:29.707Z,52.83
2019-02-03T05:30:57.392Z,55.43
2019-02-03T05:33:24.834Z,51.70
2019-02-03T05:35:52.262Z,55.10
2019-02-03T05:38:19.716Z,52.00
2019-02-03T05:40:47.308Z,45.73
2019-02-03T05:43:14.684Z,53.42
2019-02-03T05:45:42.112Z,51.58
2019-02-03T05:48:09.530Z,48.87
2019-02-03T05:50:36.935Z,58.42
2019-02-03T05:53:04.490Z,53.02
2019-02-03T05:55:31.903Z,49.88
2019-02-03T05:57:59.456Z,52.55
2019-02-03T06:00:29.655Z,57.53
2019-02-03T06:02:57.151Z,54.18
2019-02-03T06:05:24.642Z,53.92
2019-02-03T06:07:52.100Z,54.27
2019-02-03T06:10:19.891Z,59.58
2019-02-03T06:12:47.299Z,54.25
2019-02-03T06:15:15.242Z,57.70
2019-02-03T06:17:42.699Z,52.93
2019-02-03T06:20:29.467Z,52.83
2019-02-03T06:22:56.941Z,50.12
2019-02-03T06:25:24.372Z,48.75
2019-02-03T06:27:51.979Z,50.98
2019-02-03T06:30:38.732Z,46.73
2019-02-03T06:33:06.159Z,45.60
2019-02-03T06:35:33.616Z,46.42
2019-02-03T06:38:01.548Z,45.63
2019-02-03T06:40:28.941Z,40.43
2019-02-03T06:42:56.473Z,50.40
2019-02-03T06:45:43.184Z,49.18
2019-02-03T06:50:58.726Z,49.93
2019-02-03T06:53:26.136Z,46.35
2019-02-03T06:55:53.539Z,48.33
2019-02-03T06:58:20.964Z,47.13
2019-02-03T07:00:48.376Z,38.23
2019-02-03T07:03:15.809Z,51.40
2019-02-03T07:05:43.216Z,47.73
2019-02-03T07:08:10.643Z,49.05
2019-02-03T07:10:38.086Z,93.95
2019-02-03T07:13:05.644Z,47.73
2019-02-03T07:15:33.120Z,73.97
2019-02-03T07:18:02.178Z,55.38
2019-02-03T07:20:29.598Z,75.32
2019-02-03T07:22:57.036Z,62.15
2019-02-03T07:25:24.436Z,65.03
2019-02-03T07:27:52.011Z,51.05
2019-02-03T07:33:12.796Z,62.20
2019-02-03T07:35:40.222Z,45.75
2019-02-03T07:38:10.460Z,55.83
2019-02-03T07:40:36.717Z,48.05
2019-02-03T07:43:04.165Z,47.62
2019-02-03T07:45:31.566Z,52.75
2019-02-03T07:47:58.965Z,42.45
2019-02-03T07:50:26.433Z,47.93
2019-02-03T07:52:53.833Z,44.77
2019-02-03T07:55:21.233Z,42.80
2019-02-03T07:57:48.656Z,41.37
2019-02-03T08:03:25.535Z,38.00
2019-02-03T08:05:54.013Z,41.90
2019-02-03T08:08:21.628Z,38.85
2019-02-03T08:10:49.033Z,39.92
2019-02-03T08:13:16.525Z,40.05
2019-02-03T08:15:43.860Z,39.80
2019-02-03T08:18:11.307Z,38.83
2019-02-03T08:20:38.766Z,39.33
2019-02-03T08:23:07.361Z,39.13
2019-02-03T08:25:57.304Z,40.08
2019-02-03T08:28:25.434Z,38.90
2019-02-03T08:30:54.139Z,39.18
2019-02-03T08:33:22.483Z,36.03
2019-02-03T08:35:51.019Z,39.35
2019-02-03T08:38:19.392Z,36.38
2019-02-03T08:40:47.480Z,37.83
2019-02-03T08:43:15.726Z,38.45
2019-02-03T08:45:44.244Z,38.60
2019-02-03T08:48:13.365Z,37.93
2019-02-03T08:50:42.037Z,34.53
2019-02-03T08:53:09.806Z,37.40
2019-02-03T08:55:37.450Z,37.73
2019-02-03T08:58:05.651Z,37.85
2019-02-03T12:02:06.943Z,16.25
2019-02-03T12:04:34.379Z,15.38
2019-02-03T12:07:01.803Z,15.00
2019-02-03T12:09:29.244Z,14.05
2019-02-03T12:12:01.401Z,14.90
2019-02-03T12:14:25.684Z,14.05
2019-02-03T12:16:53.147Z,14.95
2019-02-03T12:19:20.556Z,14.33
2019-02-03T12:21:47.968Z,13.95
2019-02-03T12:24:15.862Z,14.18
2019-02-03T12:26:43.442Z,14.40
2019-02-03T12:29:11.352Z,14.25
2019-02-03T12:31:38.773Z,13.90
2019-02-03T12:34:06.264Z,12.28
2019-02-03T12:36:33.726Z,13.18
2019-02-03T12:39:01.696Z,12.88
2019-02-03T12:41:29.201Z,14.03
2019-02-03T12:43:56.684Z,11.57
2019-02-03T12:46:24.122Z,14.07
2019-02-03T12:48:51.571Z,13.48
2019-02-03T12:51:19.030Z,11.38
2019-02-03T12:53:46.398Z,11.10
2019-02-03T12:56:13.910Z,11.93
2019-02-03T12:58:41.360Z,11.70
2019-02-03T13:01:08.832Z,10.98
2019-02-03T13:03:38.018Z,11.18
2019-02-03T13:06:08.106Z,12.58
2019-02-03T13:08:35.320Z,10.45
2019-02-03T13:11:03.227Z,10.10
2019-02-03T13:13:30.681Z,10.75
2019-02-03T13:15:58.946Z,9.90
2019-02-03T13:18:26.424Z,11.03
2019-02-03T13:20:53.816Z,10.45
2019-02-03T13:23:21.259Z,10.38
2019-02-03T13:25:49.639Z,9.68
2019-02-03T13:28:17.027Z,8.75
2019-02-03T13:30:45.971Z,10.08
2019-02-03T13:33:13.523Z,9.35
2019-02-03T13:35:41.003Z,9.20
2019-02-03T13:38:08.579Z,8.75
2019-02-03T13:40:36.014Z,8.08
2019-02-03T13:43:03.470Z,9.00
2019-02-03T13:45:30.961Z,8.60
2019-02-03T13:47:59.035Z,8.38
2019-02-03T13:50:27.159Z,9.58
2019-02-03T13:52:55.267Z,8.13
2019-02-03T13:55:22.820Z,7.47
2019-02-03T13:57:50.305Z,7.75
2019-02-03T14:00:19.244Z,7.40
2019-02-03T14:02:46.629Z,8.75
2019-02-03T14:05:14.121Z,7.85
2019-02-03T14:07:41.612Z,9.50
2019-02-03T14:10:10.559Z,8.25
2019-02-03T14:12:48.641Z,9.05
2019-02-03T14:15:08.096Z,8.48
2019-02-03T14:17:35.588Z,8.40
2019-02-03T14:20:03.679Z,8.75
2019-02-03T14:22:31.123Z,8.00
2019-02-03T14:24:58.528Z,7.62
2019-02-03T14:27:25.945Z,7.70
2019-02-03T14:29:53.520Z,7.65
2019-02-03T14:32:21.303Z,7.85
2019-02-03T14:34:48.705Z,7.90
2019-02-03T14:37:16.091Z,6.65
2019-02-03T14:39:43.539Z,7.10
2019-02-03T14:42:10.931Z,8.05
2019-02-03T14:44:38.330Z,6.83
2019-02-03T14:47:06.612Z,6.90
2019-02-03T14:49:34.025Z,7.97
2019-02-03T14:52:03.027Z,7.42
2019-02-03T14:54:30.648Z,7.00
2019-02-03T14:56:58.075Z,8.10
2019-02-03T14:59:25.502Z,9.28
2019-02-03T15:01:52.901Z,7.95
2019-02-03T15:04:20.359Z,7.17
2019-02-03T15:06:47.834Z,7.53
2019-02-03T15:09:15.298Z,8.65
2019-02-03T15:11:42.698Z,33.50
2019-02-03T15:14:10.179Z,15.05
2019-02-03T15:16:37.619Z,14.35
2019-02-03T15:19:05.337Z,8.20
2019-02-03T15:21:32.792Z,10.13
2019-02-03T15:24:00.190Z,9.70
2019-02-03T15:26:27.627Z,9.60
2019-02-03T15:28:55.021Z,8.55
2019-02-03T15:31:22.443Z,8.20
2019-02-03T15:33:49.844Z,8.78
2019-02-03T15:36:17.307Z,8.08
2019-02-03T15:38:44.731Z,10.20
2019-02-03T15:41:12.135Z,8.18
2019-02-03T15:43:39.563Z,7.87
2019-02-03T15:46:08.003Z,9.15
2019-02-03T15:48:35.635Z,7.55
2019-02-03T15:51:03.027Z,11.25
2019-02-03T15:53:30.464Z,8.20
2019-02-03T15:55:57.847Z,7.70
2019-02-03T15:58:25.245Z,11.10
2019-02-03T16:00:53.131Z,9.35
2019-02-03T16:03:20.588Z,8.10
2019-02-03T16:05:48.311Z,7.90
2019-02-03T16:08:15.701Z,7.45
2019-02-03T16:10:43.217Z,10.72
2019-02-03T16:13:11.083Z,7.25
2019-02-03T16:15:38.475Z,7.95
2019-02-03T16:18:06.370Z,8.50
2019-02-03T16:20:33.816Z,8.15
2019-02-03T16:23:01.235Z,8.00
2019-02-03T16:25:28.702Z,7.85
2019-02-03T16:27:56.230Z,8.58
2019-02-03T16:30:25.180Z,8.05
2019-02-03T16:32:52.571Z,8.73
2019-02-03T16:35:20.252Z,7.12
2019-02-03T16:37:47.649Z,8.50
2019-02-03T16:40:19.632Z,7.33
2019-02-03T16:42:47.190Z,6.53
2019-02-03T16:45:14.838Z,7.47
2019-02-03T16:47:42.272Z,7.80
2019-02-03T16:50:13.988Z,9.05
2019-02-03T16:52:41.416Z,7.97
2019-02-03T16:55:10.187Z,6.40
2019-02-03T16:57:37.571Z,8.18
2019-02-03T17:00:07.007Z,7.05
2019-02-03T17:02:34.400Z,6.10
2019-02-03T17:05:01.790Z,9.05
2019-02-03T17:07:29.202Z,8.13
2019-02-03T17:09:56.937Z,9.93
2019-02-03T17:12:24.343Z,8.58
2019-02-03T17:14:51.740Z,8.50
2019-02-03T17:17:19.276Z,8.10
2019-02-03T17:19:46.679Z,8.48
2019-02-03T17:22:14.178Z,7.45
2019-02-03T17:24:41.554Z,8.53
2019-02-03T17:27:08.954Z,8.75
2019-02-03T17:29:36.360Z,9.88
2019-02-03T17:32:03.820Z,8.30
2019-02-03T17:34:31.250Z,8.40
2019-02-03T17:36:58.632Z,8.43
2019-02-03T17:39:26.078Z,8.10
2019-02-03T17:41:53.793Z,9.28
2019-02-03T17:44:21.228Z,8.45
2019-02-03T17:46:48.656Z,9.08
2019-02-03T17:49:16.697Z,8.83
2019-02-03T17:51:44.258Z,8.80
2019-02-03T17:54:11.720Z,9.20
2019-02-03T17:56:39.178Z,9.33
2019-02-03T17:59:06.968Z,8.75
2019-02-03T18:01:34.403Z,9.38
2019-02-03T18:04:01.826Z,12.18
2019-02-03T18:06:29.326Z,10.25
2019-02-03T18:08:56.768Z,9.28
2019-02-03T18:11:24.168Z,9.30
2019-02-03T18:13:51.575Z,9.78
2019-02-03T18:16:18.980Z,9.38
2019-02-03T18:18:46.401Z,9.20
2019-02-03T18:21:13.826Z,8.43
2019-02-03T18:23:41.254Z,8.90
2019-02-03T18:26:08.640Z,9.23
2019-02-03T18:28:36.031Z,7.85
2019-02-03T18:31:04.115Z,8.63
2019-02-03T18:33:31.490Z,8.00
2019-02-03T18:35:58.919Z,8.55
2019-02-03T18:38:26.345Z,8.33
2019-02-03T18:40:53.786Z,7.90
2019-02-03T18:43:21.240Z,8.55
2019-02-03T18:45:48.659Z,8.40
2019-02-03T18:48:16.556Z,8.53
2019-02-03T18:50:43.967Z,8.18
2019-02-03T18:53:11.367Z,8.88
2019-02-03T18:55:42.724Z,9.80
2019-02-03T18:58:10.215Z,8.78
2019-02-03T19:00:38.310Z,9.88
2019-02-03T19:03:07.380Z,8.88
2019-02-03T19:05:35.661Z,8.90
2019-02-03T19:08:03.162Z,8.83
2019-02-03T19:10:32.837Z,10.30
2019-02-03T19:12:59.724Z,9.25
2019-02-03T19:15:28.618Z,9.45
2019-02-03T19:17:56.528Z,8.90
2019-02-03T19:20:25.498Z,8.95
2019-02-03T19:22:52.901Z,9.65
2019-02-03T19:25:20.700Z,9.10
2019-02-03T19:27:48.470Z,9.48
2019-02-03T19:30:17.455Z,9.75
2019-02-03T19:32:44.854Z,9.98
2019-02-03T19:35:13.565Z,9.75
2019-02-03T19:37:41.060Z,10.50
2019-02-03T19:40:10.015Z,9.90
2019-02-03T19:42:37.462Z,9.95
2019-02-03T19:45:06.619Z,10.43
2019-02-03T19:47:34.226Z,12.37
2019-02-03T19:50:01.956Z,11.95
2019-02-03T19:52:29.401Z,10.18
2019-02-03T19:54:56.908Z,11.05
2019-02-03T19:57:24.317Z,9.58
2019-02-03T19:59:51.744Z,11.48
2019-02-03T20:02:19.180Z,12.30
2019-02-03T20:04:46.949Z,9.88
2019-02-03T20:07:14.412Z,10.60
2019-02-03T20:09:41.812Z,10.45
2019-02-03T20:12:09.245Z,10.58
2019-02-03T20:14:36.641Z,9.65
2019-02-03T20:17:04.122Z,10.98
2019-02-03T20:19:31.541Z,11.05
2019-02-03T20:21:59.386Z,10.88
2019-02-03T20:24:26.812Z,10.75
2019-02-03T20:26:54.265Z,10.53
2019-02-03T20:29:21.676Z,10.40
2019-02-03T20:31:49.162Z,10.28
2019-02-03T20:34:16.603Z,10.00
2019-02-03T20:36:43.986Z,10.15
2019-02-03T20:39:11.973Z,9.85
2019-02-03T20:41:39.365Z,10.78
2019-02-03T20:44:06.784Z,11.85
2019-02-03T20:46:34.204Z,10.00
2019-02-03T20:49:01.633Z,10.58
2019-02-03T20:51:29.043Z,11.30
2019-02-03T20:53:56.443Z,10.13
2019-02-03T20:56:24.184Z,10.13
2019-02-03T20:58:51.574Z,11.70
2019-02-03T21:01:19.019Z,14.05
2019-02-03T21:03:46.511Z,10.10
2019-02-03T21:06:13.907Z,9.80
2019-02-03T21:08:41.331Z,10.32
2019-02-03T21:11:08.792Z,10.43
2019-02-03T21:13:36.188Z,11.20
2019-02-03T21:16:03.673Z,9.20
2019-02-03T21:18:31.067Z,11.03
2019-02-03T21:20:58.502Z,9.90
2019-02-03T21:23:25.880Z,9.45
2019-02-03T21:25:53.343Z,9.45
2019-02-03T21:28:20.735Z,8.70
2019-02-03T21:30:49.024Z,9.00
2019-02-03T21:33:16.411Z,9.80
2019-02-03T21:35:43.895Z,8.25
2019-02-03T21:38:12.076Z,7.78
2019-02-03T21:40:39.600Z,8.40
2019-02-03T21:43:08.360Z,8.50
2019-02-03T21:45:44.221Z,7.72
2019-02-03T21:48:05.456Z,8.90
2019-02-03T21:50:32.894Z,8.38
2019-02-03T21:53:00.304Z,8.13
2019-02-03T21:55:27.825Z,7.67
2019-02-03T21:57:55.252Z,9.60
2019-02-03T22:00:30.463Z,8.20
2019-02-03T22:02:58.176Z,7.87
2019-02-03T22:05:25.660Z,7.10
2019-02-03T22:07:55.913Z,7.87
2019-02-03T22:10:26.894Z,7.78
2019-02-03T22:12:55.969Z,7.72
2019-02-03T22:15:23.412Z,7.90
2019-02-03T22:17:50.869Z,7.42
2019-02-03T22:20:19.380Z,8.03
2019-02-03T22:22:46.842Z,8.55
2019-02-03T22:25:14.243Z,7.90
2019-02-03T22:27:41.736Z,8.38
2019-02-03T22:30:10.979Z,8.25
2019-02-03T22:32:38.366Z,7.97
2019-02-03T22:35:07.886Z,8.33
2019-02-03T22:37:35.314Z,8.13
2019-02-03T22:40:02.895Z,7.67
2019-02-03T22:42:30.275Z,6.85
2019-02-03T22:44:58.010Z,7.80
2019-02-03T22:47:25.392Z,7.53
2019-02-03T22:49:52.899Z,7.75
2019-02-03T22:52:20.329Z,7.53
2019-02-03T22:54:49.602Z,7.58
2019-02-03T22:57:17.236Z,7.10
2019-02-03T22:59:44.689Z,7.80
2019-02-03T23:02:12.156Z,7.65
2019-02-03T23:04:39.576Z,7.45
2019-02-03T23:07:06.961Z,6.72
2019-02-03T23:09:34.347Z,7.83
2019-02-03T23:12:03.418Z,7.50
2019-02-03T23:14:31.031Z,7.08
2019-02-03T23:16:58.514Z,7.47
2019-02-03T23:19:27.903Z,6.90
2019-02-03T23:21:57.460Z,7.45
2019-02-03T23:24:26.075Z,6.30
2019-02-03T23:26:56.335Z,6.83
2019-02-03T23:29:25.444Z,6.72
2019-02-03T23:31:53.866Z,6.47
2019-02-03T23:34:23.848Z,6.30
2019-02-03T23:36:52.368Z,5.95
2019-02-03T23:39:20.117Z,5.60
2019-02-03T23:41:47.528Z,7.12
2019-02-03T23:44:16.867Z,6.15
2019-02-03T23:46:44.603Z,5.70
2019-02-03T23:49:11.997Z,5.12
2019-02-03T23:51:39.421Z,5.83
2019-02-03T23:54:06.856Z,6.20
2019-02-03T23:56:34.277Z,5.25
2019-02-03T23:59:01.666Z,6.37
